Time;durP1;ratioP1;P1;durP2;ratioP2;P2;SDS_P1;SDS_P2;PMS_P1;PMS_P2;Temp;Humidity;BMP_temperature;BMP_pressure;BME280_temperature;BME280_humidity;BME280_pressure;Samples;Min_cycle;Max_cycle;Signal;HPM_P1;HPM_P2
2023/09/04 00:00:32;;;;;;;;;;;12.10;99.90;;;;;;5041047;28;19960;-69
2023/09/04 00:02:58;;;;;;;;;;;12.00;99.90;;;;;;5043849;28;20263;-69
2023/09/04 00:05:23;;;;;;;;;;;11.90;99.90;;;;;;5041278;28;19924;-70
2023/09/04 00:07:49;;;;;;;;;;;11.90;99.90;;;;;;5042881;28;20007;-69
2023/09/04 00:10:14;;;;;;;;;;;11.90;99.90;;;;;;5041373;28;19921;-70
2023/09/04 00:12:40;;;;;;;;;;;11.90;99.90;;;;;;5059133;28;19920;-69
2023/09/04 00:15:06;;;;;;;;;;;12.00;99.90;;;;;;5040693;28;19931;-70
2023/09/04 00:17:32;;;;;;;;;;;12.00;99.90;;;;;;5039599;28;19951;-70
2023/09/04 00:19:57;;;;;;;;;;;12.10;99.90;;;;;;5041170;28;19967;-70
2023/09/04 00:22:23;;;;;;;;;;;12.10;99.90;;;;;;5041830;28;20017;-71
2023/09/04 00:24:48;;;;;;;;;;;12.10;99.90;;;;;;5045204;28;19916;-70
2023/09/04 00:27:14;;;;;;;;;;;12.10;99.90;;;;;;5042745;28;19921;-70
2023/09/04 00:29:39;;;;;;;;;;;12.00;99.90;;;;;;5040486;28;19916;-70
2023/09/04 00:32:06;;;;;;;;;;;12.10;99.90;;;;;;5039173;28;20012;-70
2023/09/04 00:34:31;;;;;;;;;;;12.10;99.90;;;;;;5037629;28;19921;-70
2023/09/04 00:36:57;;;;;;;;;;;11.90;99.90;;;;;;5040391;28;19923;-70
2023/09/04 00:39:23;;;;;;;;;;;11.80;99.90;;;;;;5043344;28;20335;-71
2023/09/04 00:41:48;;;;;;;;;;;11.70;99.90;;;;;;5041564;28;20478;-70
2023/09/04 00:44:14;;;;;;;;;;;11.70;99.90;;;;;;5045194;28;19924;-70
2023/09/04 00:46:41;;;;;;;;;;;11.70;99.90;;;;;;5041579;28;19920;-71
2023/09/04 00:49:06;;;;;;;;;;;11.70;99.90;;;;;;5045423;28;19917;-71
2023/09/04 00:51:32;;;;;;;;;;;11.60;99.90;;;;;;5038981;28;21553;-71
2023/09/04 00:53:57;;;;;;;;;;;11.70;99.90;;;;;;5040766;28;20051;-71
2023/09/04 00:56:23;;;;;;;;;;;11.70;99.90;;;;;;5071512;28;19969;-71
2023/09/04 00:58:49;;;;;;;;;;;11.70;99.90;;;;;;5044138;28;20314;-71
2023/09/04 01:01:14;;;;;;;;;;;11.80;99.90;;;;;;5041959;28;19917;-71
2023/09/04 01:03:40;;;;;;;;;;;11.90;99.90;;;;;;5042011;28;19920;-71
2023/09/04 01:06:05;;;;;;;;;;;11.90;99.90;;;;;;5038849;28;19973;-71
2023/09/04 01:08:31;;;;;;;;;;;11.90;99.90;;;;;;5041923;28;20368;-71
2023/09/04 01:10:56;;;;;;;;;;;11.90;99.90;;;;;;5039129;28;19999;-71
2023/09/04 01:13:28;;;;;;;;;;;11.90;99.90;;;;;;5041538;28;19917;-71
2023/09/04 01:15:54;;;;;;;;;;;11.90;99.90;;;;;;5038253;28;19925;-71
2023/09/04 01:18:20;;;;;;;;;;;11.80;99.90;;;;;;5041744;28;19924;-71
2023/09/04 01:20:58;;;;;;;;;;;11.70;99.90;;;;;;5039644;28;20422;-71
2023/09/04 01:23:23;;;;;;;;;;;11.60;99.90;;;;;;5041172;28;19925;-71
2023/09/04 01:25:54;;;;;;;;;;;11.40;99.90;;;;;;5067552;28;19931;-71
2023/09/04 01:28:25;;;;;;;;;;;11.40;99.90;;;;;;5038616;28;19956;-71
2023/09/04 01:31:13;;;;;;;;;;;11.50;99.90;;;;;;5070233;28;20648;-72
2023/09/04 01:33:46;;;;;;;;;;;11.50;99.90;;;;;;5032439;28;20051;-72
2023/09/04 01:36:13;;;;;;;;;;;11.50;99.90;;;;;;5067146;28;20000;-71
2023/09/04 01:38:39;;;;;;;;;;;11.50;99.90;;;;;;5038239;28;20326;-72
2023/09/04 01:41:05;;;;;;;;;;;11.40;99.90;;;;;;5034706;28;19925;-71
2023/09/04 01:43:30;;;;;;;;;;;11.40;99.90;;;;;;5042099;28;20069;-71
2023/09/04 01:45:56;;;;;;;;;;;11.40;99.90;;;;;;5043060;28;20099;-72
2023/09/04 01:48:22;;;;;;;;;;;11.30;99.90;;;;;;5044408;28;19925;-71
2023/09/04 01:50:47;;;;;;;;;;;11.30;99.90;;;;;;5042168;28;19943;-71
2023/09/04 01:53:13;;;;;;;;;;;11.20;99.90;;;;;;5042389;28;19979;-72
2023/09/04 01:55:38;;;;;;;;;;;11.20;99.90;;;;;;5039478;28;20387;-72
2023/09/04 01:58:03;;;;;;;;;;;11.20;99.90;;;;;;5066852;28;20371;-72
2023/09/04 02:00:29;;;;;;;;;;;11.20;99.90;;;;;;5070559;28;19921;-72
2023/09/04 02:02:55;;;;;;;;;;;11.20;99.90;;;;;;5041153;28;19916;-72
2023/09/04 02:05:20;;;;;;;;;;;11.10;99.90;;;;;;5040029;28;19916;-72
2023/09/04 02:07:46;;;;;;;;;;;11.10;99.90;;;;;;5040779;28;19963;-72
2023/09/04 02:10:11;;;;;;;;;;;11.10;99.90;;;;;;5040760;28;20620;-72
2023/09/04 02:12:37;;;;;;;;;;;11.10;99.90;;;;;;5038880;28;19917;-71
2023/09/04 02:15:02;;;;;;;;;;;11.10;99.90;;;;;;5036511;28;19927;-71
2023/09/04 02:17:28;;;;;;;;;;;11.20;99.90;;;;;;5038448;28;19916;-72
2023/09/04 02:19:53;;;;;;;;;;;11.20;99.90;;;;;;5042437;28;19931;-72
2023/09/04 02:22:19;;;;;;;;;;;11.10;99.90;;;;;;5039641;28;19968;-72
2023/09/04 02:24:47;;;;;;;;;;;11.00;99.90;;;;;;5041419;28;19976;-72
2023/09/04 02:27:13;;;;;;;;;;;11.00;99.90;;;;;;5025338;28;19959;-71
2023/09/04 02:29:38;;;;;;;;;;;11.00;99.90;;;;;;5040386;28;19964;-71
2023/09/04 02:32:04;;;;;;;;;;;11.00;99.90;;;;;;5037578;28;20410;-71
2023/09/04 02:34:30;;;;;;;;;;;11.10;99.90;;;;;;5040667;28;20015;-72
2023/09/04 02:36:58;;;;;;;;;;;11.10;99.90;;;;;;5072213;28;20012;-72
2023/09/04 02:39:23;;;;;;;;;;;11.00;99.90;;;;;;5045096;28;19917;-71
2023/09/04 02:41:50;;;;;;;;;;;11.00;99.90;;;;;;5040612;28;20413;-72
2023/09/04 02:44:15;;;;;;;;;;;10.90;99.90;;;;;;5043884;28;19921;-71
2023/09/04 02:46:41;;;;;;;;;;;10.90;99.90;;;;;;5043178;28;19924;-72
2023/09/04 02:49:06;;;;;;;;;;;10.80;99.90;;;;;;5040514;28;20422;-72
2023/09/04 02:51:32;;;;;;;;;;;10.80;99.90;;;;;;5043713;28;19925;-72
2023/09/04 02:53:57;;;;;;;;;;;10.70;99.90;;;;;;5037237;28;19933;-72
2023/09/04 02:56:23;;;;;;;;;;;10.70;99.90;;;;;;5039629;28;19917;-72
2023/09/04 02:58:49;;;;;;;;;;;10.70;99.90;;;;;;5046225;28;19927;-72
2023/09/04 03:01:16;;;;;;;;;;;10.70;99.90;;;;;;5042010;28;19920;-72
2023/09/04 03:03:41;;;;;;;;;;;10.70;99.90;;;;;;5074343;28;19920;-72
2023/09/04 03:06:07;;;;;;;;;;;10.60;99.90;;;;;;5041422;28;19917;-72
2023/09/04 03:08:33;;;;;;;;;;;10.60;99.90;;;;;;5042857;28;19917;-72
2023/09/04 03:10:58;;;;;;;;;;;10.60;99.90;;;;;;5071529;28;19927;-72
2023/09/04 03:13:24;;;;;;;;;;;10.50;99.90;;;;;;5038536;28;19972;-72
2023/09/04 03:15:49;;;;;;;;;;;10.50;99.90;;;;;;5041775;28;19921;-72
2023/09/04 03:18:15;;;;;;;;;;;10.60;99.90;;;;;;5042156;28;20015;-72
2023/09/04 03:20:40;;;;;;;;;;;10.60;99.90;;;;;;5069834;28;19916;-72
2023/09/04 03:23:07;;;;;;;;;;;10.50;99.90;;;;;;5072976;28;20623;-71
2023/09/04 03:25:33;;;;;;;;;;;10.50;99.90;;;;;;5044985;28;19921;-71
2023/09/04 03:27:58;;;;;;;;;;;10.40;99.90;;;;;;5040598;28;19917;-71
2023/09/04 03:30:23;;;;;;;;;;;10.30;99.90;;;;;;5041089;28;19935;-72
2023/09/04 03:32:49;;;;;;;;;;;10.30;99.90;;;;;;5074319;28;19931;-71
2023/09/04 03:35:17;;;;;;;;;;;10.30;99.90;;;;;;5043866;28;19925;-72
2023/09/04 03:37:42;;;;;;;;;;;10.20;99.90;;;;;;5057782;28;19932;-71
2023/09/04 03:40:21;;;;;;;;;;;10.20;99.90;;;;;;5045944;28;19924;-71
2023/09/04 03:42:46;;;;;;;;;;;10.20;99.90;;;;;;5042126;28;20344;-71
2023/09/04 03:45:12;;;;;;;;;;;10.20;99.90;;;;;;5073138;28;19924;-72
2023/09/04 03:47:38;;;;;;;;;;;10.20;99.90;;;;;;5041280;28;19959;-71
2023/09/04 03:50:04;;;;;;;;;;;10.30;99.90;;;;;;5045210;28;19928;-71
2023/09/04 03:52:30;;;;;;;;;;;10.30;99.90;;;;;;5041346;28;19924;-71
2023/09/04 03:54:56;;;;;;;;;;;10.30;99.90;;;;;;5046135;28;19925;-71
2023/09/04 03:57:21;;;;;;;;;;;10.30;99.90;;;;;;5042289;28;19923;-72
2023/09/04 03:59:51;;;;;;;;;;;10.30;99.90;;;;;;5076795;28;19916;-71
2023/09/04 04:02:17;;;;;;;;;;;10.40;99.90;;;;;;5073127;28;20474;-71
2023/09/04 04:04:43;;;;;;;;;;;10.40;99.90;;;;;;5042533;28;19920;-71
2023/09/04 04:07:09;;;;;;;;;;;10.40;99.90;;;;;;5039223;28;20343;-71
2023/09/04 04:09:34;;;;;;;;;;;10.40;99.90;;;;;;5038726;28;19924;-71
2023/09/04 04:12:00;;;;;;;;;;;10.30;99.90;;;;;;5039471;28;20003;-71
2023/09/04 04:14:25;;;;;;;;;;;10.30;99.90;;;;;;5043323;28;19929;-71
2023/09/04 04:16:51;;;;;;;;;;;10.20;99.90;;;;;;5037568;28;19932;-71
2023/09/04 04:19:16;;;;;;;;;;;10.20;99.90;;;;;;5039359;28;20458;-71
2023/09/04 04:21:42;;;;;;;;;;;10.10;99.90;;;;;;5037876;28;19917;-71
2023/09/04 04:24:07;;;;;;;;;;;10.10;99.90;;;;;;5040685;28;20287;-71
2023/09/04 04:26:32;;;;;;;;;;;10.10;99.90;;;;;;5041089;28;20458;-71
2023/09/04 04:28:58;;;;;;;;;;;10.00;99.90;;;;;;5037787;28;19995;-71
2023/09/04 04:31:23;;;;;;;;;;;10.00;99.90;;;;;;5039437;28;19932;-71
2023/09/04 04:33:49;;;;;;;;;;;10.00;99.90;;;;;;5040621;28;19924;-71
2023/09/04 04:36:14;;;;;;;;;;;10.10;99.90;;;;;;5022632;28;19984;-71
2023/09/04 04:38:40;;;;;;;;;;;10.20;99.90;;;;;;5041316;28;19967;-71
2023/09/04 04:41:05;;;;;;;;;;;10.20;99.90;;;;;;5035857;28;20383;-71
2023/09/04 04:43:31;;;;;;;;;;;10.20;99.90;;;;;;5041811;28;19921;-71
2023/09/04 04:45:57;;;;;;;;;;;10.30;99.90;;;;;;5040046;28;19917;-71
2023/09/04 04:48:23;;;;;;;;;;;10.30;99.90;;;;;;5025814;28;19971;-71
2023/09/04 04:50:48;;;;;;;;;;;10.30;99.90;;;;;;5037539;28;20385;-70
2023/09/04 04:53:14;;;;;;;;;;;10.40;99.90;;;;;;5036945;28;20365;-71
2023/09/04 04:55:39;;;;;;;;;;;10.40;99.90;;;;;;5041612;28;19976;-70
2023/09/04 04:58:04;;;;;;;;;;;10.40;99.90;;;;;;5071842;28;19916;-71
2023/09/04 05:00:30;;;;;;;;;;;10.40;99.90;;;;;;5072625;28;20031;-71
2023/09/04 05:02:56;;;;;;;;;;;10.40;99.90;;;;;;5036813;28;19921;-71
2023/09/04 05:05:21;;;;;;;;;;;10.40;99.90;;;;;;5040133;28;20543;-70
2023/09/04 05:07:47;;;;;;;;;;;10.40;99.90;;;;;;5036916;28;19917;-71
2023/09/04 05:10:13;;;;;;;;;;;10.40;99.90;;;;;;5040280;28;19916;-71
2023/09/04 05:12:38;;;;;;;;;;;10.40;99.90;;;;;;5038264;28;19980;-70
2023/09/04 05:15:04;;;;;;;;;;;10.40;99.90;;;;;;5072947;28;19951;-71
2023/09/04 05:17:30;;;;;;;;;;;10.50;99.90;;;;;;5069180;28;20375;-70
2023/09/04 05:19:55;;;;;;;;;;;10.50;99.90;;;;;;5071375;28;19931;-70
2023/09/04 05:22:21;;;;;;;;;;;10.50;99.90;;;;;;5037111;28;20626;-70
2023/09/04 05:24:46;;;;;;;;;;;10.50;99.90;;;;;;5039642;28;19920;-70
2023/09/04 05:27:12;;;;;;;;;;;10.50;99.90;;;;;;5036587;28;19921;-70
2023/09/04 05:29:37;;;;;;;;;;;10.60;99.90;;;;;;5034580;28;19924;-70
2023/09/04 05:32:03;;;;;;;;;;;10.60;99.90;;;;;;5037301;28;20265;-70
2023/09/04 05:34:29;;;;;;;;;;;10.70;99.90;;;;;;5044829;28;19928;-70
2023/09/04 05:36:55;;;;;;;;;;;10.70;99.90;;;;;;5041587;28;19925;-70
2023/09/04 05:39:20;;;;;;;;;;;10.80;99.90;;;;;;5037971;28;19916;-70
2023/09/04 05:41:46;;;;;;;;;;;10.90;99.90;;;;;;5040510;28;19940;-70
2023/09/04 05:44:11;;;;;;;;;;;11.00;99.90;;;;;;5041989;28;19924;-70
2023/09/04 05:46:37;;;;;;;;;;;11.10;99.90;;;;;;5045827;28;19917;-70
2023/09/04 05:49:02;;;;;;;;;;;11.10;99.90;;;;;;5043898;28;20403;-71
2023/09/04 05:51:28;;;;;;;;;;;11.20;99.90;;;;;;5043029;28;19917;-70
2023/09/04 05:53:53;;;;;;;;;;;11.30;99.90;;;;;;5040778;28;19929;-70
2023/09/04 05:56:19;;;;;;;;;;;11.30;99.90;;;;;;5042323;28;19920;-71
2023/09/04 05:58:44;;;;;;;;;;;11.40;99.90;;;;;;5043647;28;20421;-71
2023/09/04 06:01:10;;;;;;;;;;;11.50;99.90;;;;;;5042029;28;19924;-71
2023/09/04 06:03:36;;;;;;;;;;;11.60;99.90;;;;;;5040871;28;20282;-71
2023/09/04 06:06:02;;;;;;;;;;;11.70;99.90;;;;;;5038983;28;21421;-71
2023/09/04 06:08:29;;;;;;;;;;;11.80;99.90;;;;;;5044986;28;19931;-72
2023/09/04 06:10:54;;;;;;;;;;;11.80;99.90;;;;;;5048783;28;20295;-72
2023/09/04 06:13:19;;;;;;;;;;;11.90;99.90;;;;;;5044793;28;19916;-72
2023/09/04 06:15:45;;;;;;;;;;;12.00;99.90;;;;;;5045550;28;19928;-72
2023/09/04 06:18:10;;;;;;;;;;;12.10;99.90;;;;;;5046358;28;19920;-72
2023/09/04 06:20:36;;;;;;;;;;;12.20;99.90;;;;;;5045653;28;19928;-72
2023/09/04 06:23:03;;;;;;;;;;;12.30;99.90;;;;;;5045732;28;19967;-72
2023/09/04 06:25:28;;;;;;;;;;;12.50;99.90;;;;;;5045709;28;19917;-72
2023/09/04 06:27:53;;;;;;;;;;;12.60;99.90;;;;;;5044233;28;20298;-72
2023/09/04 06:30:19;;;;;;;;;;;12.70;99.90;;;;;;5047563;28;19917;-73
2023/09/04 06:32:45;;;;;;;;;;;12.80;99.90;;;;;;5049138;28;19927;-72
2023/09/04 06:35:10;;;;;;;;;;;12.90;99.90;;;;;;5045489;28;20022;-72
2023/09/04 06:37:36;;;;;;;;;;;13.00;99.90;;;;;;5044144;28;20034;-71
2023/09/04 06:40:02;;;;;;;;;;;13.20;99.90;;;;;;5043275;28;19921;-71
2023/09/04 06:42:28;;;;;;;;;;;13.30;99.90;;;;;;5046722;28;19931;-70
2023/09/04 06:44:54;;;;;;;;;;;13.40;99.90;;;;;;5047893;28;19920;-70
2023/09/04 06:47:19;;;;;;;;;;;13.60;99.90;;;;;;5044623;28;20386;-70
2023/09/04 06:49:45;;;;;;;;;;;13.70;99.90;;;;;;5051012;28;19971;-69
2023/09/04 06:52:10;;;;;;;;;;;13.80;99.90;;;;;;5052731;28;20367;-70
2023/09/04 06:54:36;;;;;;;;;;;13.90;99.90;;;;;;5047378;28;19928;-69
2023/09/04 06:57:02;;;;;;;;;;;14.10;99.90;;;;;;5046218;28;20606;-69
2023/09/04 06:59:27;;;;;;;;;;;14.20;99.90;;;;;;5045440;28;20001;-69
2023/09/04 07:01:53;;;;;;;;;;;14.30;99.90;;;;;;5046385;28;20014;-69
2023/09/04 07:04:18;;;;;;;;;;;14.40;99.90;;;;;;5030859;28;19917;-69
2023/09/04 07:06:43;;;;;;;;;;;14.60;99.90;;;;;;5045484;28;20391;-69
2023/09/04 07:09:09;;;;;;;;;;;14.70;99.90;;;;;;5044424;28;19921;-68
2023/09/04 07:11:34;;;;;;;;;;;14.80;99.90;;;;;;5045877;28;19916;-68
2023/09/04 07:14:00;;;;;;;;;;;15.00;99.90;;;;;;5075704;28;19928;-68
2023/09/04 07:16:25;;;;;;;;;;;15.10;99.90;;;;;;5043434;28;19955;-69
2023/09/04 07:18:51;;;;;;;;;;;15.20;99.90;;;;;;5044934;28;20663;-70
2023/09/04 07:21:16;;;;;;;;;;;15.40;99.90;;;;;;5044589;28;19916;-69
2023/09/04 07:23:42;;;;;;;;;;;15.50;99.90;;;;;;5044997;28;19927;-68
2023/09/04 07:26:07;;;;;;;;;;;15.60;99.90;;;;;;5049969;28;19917;-68
2023/09/04 07:28:33;;;;;;;;;;;15.70;99.90;;;;;;5046592;28;19968;-68
2023/09/04 07:31:28;;;;;;;;;;;15.90;99.90;;;;;;5052442;28;19924;-68
2023/09/04 07:33:54;;;;;;;;;;;16.00;99.90;;;;;;5037258;28;19925;-67
2023/09/04 07:36:19;;;;;;;;;;;16.10;99.90;;;;;;5049755;28;20351;-68
2023/09/04 07:38:45;;;;;;;;;;;16.20;99.90;;;;;;5048522;28;19920;-68
2023/09/04 07:41:10;;;;;;;;;;;16.30;99.90;;;;;;5050358;28;20318;-67
2023/09/04 07:43:36;;;;;;;;;;;16.50;99.90;;;;;;5047104;28;20367;-68
2023/09/04 07:46:02;;;;;;;;;;;16.60;99.90;;;;;;5043608;28;19924;-67
2023/09/04 07:48:27;;;;;;;;;;;16.70;99.90;;;;;;5042457;28;20360;-67
2023/09/04 07:50:53;;;;;;;;;;;16.80;99.90;;;;;;5048112;28;19923;-67
2023/09/04 07:53:19;;;;;;;;;;;16.90;99.90;;;;;;5045814;28;19956;-68
2023/09/04 07:55:45;;;;;;;;;;;17.00;99.90;;;;;;5046117;28;19947;-68
2023/09/04 07:58:10;;;;;;;;;;;17.20;99.90;;;;;;5042239;28;19917;-68
2023/09/04 08:00:36;;;;;;;;;;;17.20;99.90;;;;;;5048637;28;19920;-68
2023/09/04 08:03:02;;;;;;;;;;;17.40;99.90;;;;;;5046006;28;20329;-68
2023/09/04 08:05:28;;;;;;;;;;;17.50;99.90;;;;;;5045735;28;20113;-68
2023/09/04 08:07:53;;;;;;;;;;;17.60;99.90;;;;;;5016365;28;20578;-69
2023/09/04 08:10:19;;;;;;;;;;;17.70;99.90;;;;;;5046305;28;19966;-68
2023/09/04 08:12:44;;;;;;;;;;;17.80;99.90;;;;;;5045871;28;19939;-68
2023/09/04 08:15:10;;;;;;;;;;;17.90;99.90;;;;;;5050698;28;19920;-70
2023/09/04 08:17:36;;;;;;;;;;;18.10;99.90;;;;;;5045634;28;19917;-70
2023/09/04 08:20:02;;;;;;;;;;;18.10;99.90;;;;;;5047172;28;19920;-70
2023/09/04 08:22:27;;;;;;;;;;;18.20;99.90;;;;;;5077815;28;20384;-69
2023/09/04 08:24:56;;;;;;;;;;;18.40;99.90;;;;;;5040223;28;19917;-69
2023/09/04 08:27:21;;;;;;;;;;;18.40;99.90;;;;;;5041247;28;19936;-71
2023/09/04 08:29:47;;;;;;;;;;;18.40;99.90;;;;;;5041047;28;19917;-71
2023/09/04 08:32:12;;;;;;;;;;;18.50;99.90;;;;;;5043390;28;20019;-71
2023/09/04 08:34:38;;;;;;;;;;;18.60;99.90;;;;;;5026088;28;20367;-70
2023/09/04 08:37:03;;;;;;;;;;;18.60;99.90;;;;;;5041960;28;19927;-71
2023/09/04 08:39:29;;;;;;;;;;;18.70;99.90;;;;;;5044035;28;20010;-71
2023/09/04 08:41:55;;;;;;;;;;;18.80;99.90;;;;;;5044811;28;19920;-71
2023/09/04 08:44:20;;;;;;;;;;;18.90;99.90;;;;;;5045130;28;19939;-71
2023/09/04 08:46:47;;;;;;;;;;;19.00;99.90;;;;;;5060030;28;19917;-71
2023/09/04 08:49:14;;;;;;;;;;;19.00;99.90;;;;;;5044991;28;19924;-71
2023/09/04 08:51:39;;;;;;;;;;;19.10;99.90;;;;;;5020391;28;19917;-70
2023/09/04 08:54:05;;;;;;;;;;;19.10;99.90;;;;;;5045114;28;19973;-71
2023/09/04 08:56:31;;;;;;;;;;;19.20;99.90;;;;;;5045033;28;19928;-71
2023/09/04 08:58:56;;;;;;;;;;;19.20;99.90;;;;;;5042207;28;20371;-69
2023/09/04 09:01:26;;;;;;;;;;;19.30;99.90;;;;;;5046150;28;19916;-71
2023/09/04 09:03:52;;;;;;;;;;;19.40;99.90;;;;;;5042694;28;20288;-70
2023/09/04 09:06:17;;;;;;;;;;;19.40;99.90;;;;;;5044365;28;20054;-70
2023/09/04 09:08:44;;;;;;;;;;;19.40;99.90;;;;;;5042483;28;19967;-69
2023/09/04 09:11:11;;;;;;;;;;;19.50;99.90;;;;;;5044296;28;19917;-70
2023/09/04 09:13:38;;;;;;;;;;;19.60;99.90;;;;;;5045707;28;19920;-70
2023/09/04 09:16:04;;;;;;;;;;;19.70;99.90;;;;;;5048992;28;20228;-70
2023/09/04 09:18:33;;;;;;;;;;;19.70;99.90;;;;;;5045002;28;20367;-70
2023/09/04 09:20:58;;;;;;;;;;;19.80;99.90;;;;;;5047987;28;19928;-70
2023/09/04 09:23:23;;;;;;;;;;;19.90;99.90;;;;;;5044739;28;20618;-70
2023/09/04 09:25:54;;;;;;;;;;;20.00;99.90;;;;;;5048159;28;20005;-70
2023/09/04 09:28:20;;;;;;;;;;;20.10;99.90;;;;;;5047709;28;19920;-71
2023/09/04 09:30:46;;;;;;;;;;;20.10;99.90;;;;;;5045437;28;20725;-70
2023/09/04 09:33:12;;;;;;;;;;;20.20;99.90;;;;;;5043152;28;19927;-70
2023/09/04 09:35:40;;;;;;;;;;;20.20;99.90;;;;;;5043275;28;20371;-70
2023/09/04 09:38:05;;;;;;;;;;;20.30;99.90;;;;;;5045117;28;19940;-70
2023/09/04 09:40:31;;;;;;;;;;;20.30;99.90;;;;;;5046587;28;19917;-70
2023/09/04 09:42:58;;;;;;;;;;;20.40;99.90;;;;;;5078312;28;19916;-70
2023/09/04 09:45:24;;;;;;;;;;;20.50;99.90;;;;;;5044911;28;19967;-69
2023/09/04 09:47:50;;;;;;;;;;;20.60;99.90;;;;;;5045199;28;20013;-71
2023/09/04 09:50:16;;;;;;;;;;;20.60;99.90;;;;;;5048023;28;19923;-69
2023/09/04 09:52:55;;;;;;;;;;;20.70;99.90;;;;;;5045373;28;20394;-69
2023/09/04 09:55:24;;;;;;;;;;;20.70;99.90;;;;;;5045700;28;20370;-69
2023/09/04 09:57:50;;;;;;;;;;;20.80;99.90;;;;;;5048237;28;19916;-69
2023/09/04 10:00:17;;;;;;;;;;;20.80;99.90;;;;;;5048919;28;19917;-69
2023/09/04 10:02:42;;;;;;;;;;;20.80;99.90;;;;;;5048264;28;19916;-69
2023/09/04 10:05:09;;;;;;;;;;;20.90;99.90;;;;;;5048389;28;19917;-69
2023/09/04 10:07:36;;;;;;;;;;;20.90;99.90;;;;;;5043119;28;19972;-69
2023/09/04 10:10:03;;;;;;;;;;;20.90;99.90;;;;;;5040320;28;19967;-69
2023/09/04 10:12:42;;;;;;;;;;;21.00;99.90;;;;;;5042063;28;19921;-69
2023/09/04 10:15:09;;;;;;;;;;;21.10;99.90;;;;;;5042924;28;20322;-69
2023/09/04 10:17:43;;;;;;;;;;;21.20;99.90;;;;;;5043800;28;20342;-69
2023/09/04 10:20:09;;;;;;;;;;;21.20;99.90;;;;;;5043643;28;20344;-69
2023/09/04 10:22:40;;;;;;;;;;;21.30;99.90;;;;;;5041582;28;19924;-69
2023/09/04 10:25:20;;;;;;;;;;;21.30;99.90;;;;;;5042896;28;19923;-68
2023/09/04 10:27:49;;;;;;;;;;;21.40;99.90;;;;;;5040039;28;19959;-69
2023/09/04 10:30:17;;;;;;;;;;;21.40;99.90;;;;;;5039103;28;19975;-69
2023/09/04 10:32:43;;;;;;;;;;;21.40;99.90;;;;;;5041761;28;20394;-68
2023/09/04 10:35:09;;;;;;;;;;;21.40;99.90;;;;;;5038153;28;19944;-69
2023/09/04 10:37:37;;;;;;;;;;;21.40;99.90;;;;;;5040988;28;20418;-69
2023/09/04 10:40:05;;;;;;;;;;;21.50;99.90;;;;;;5041449;28;19923;-69
2023/09/04 10:42:33;;;;;;;;;;;21.50;99.90;;;;;;5040371;28;20572;-69
2023/09/04 10:45:10;;;;;;;;;;;21.60;99.90;;;;;;5040122;28;19916;-68
2023/09/04 10:47:42;;;;;;;;;;;21.60;99.90;;;;;;5041012;28;19921;-70
2023/09/04 10:50:25;;;;;;;;;;;21.60;99.90;;;;;;5042912;28;19920;-68
2023/09/04 10:52:50;;;;;;;;;;;21.70;99.90;;;;;;5046739;28;20032;-69
2023/09/04 10:55:17;;;;;;;;;;;21.70;99.90;;;;;;5047820;28;19999;-68
2023/09/04 10:57:59;;;;;;;;;;;21.80;99.90;;;;;;5047921;28;20257;-68
2023/09/04 11:00:33;;;;;;;;;;;21.80;99.90;;;;;;5046853;28;19927;-69
2023/09/04 11:03:17;;;;;;;;;;;21.90;99.90;;;;;;5046332;28;19921;-68
2023/09/04 11:06:06;;;;;;;;;;;21.90;99.90;;;;;;5043630;28;20007;-69
2023/09/04 11:08:32;;;;;;;;;;;21.90;99.90;;;;;;5027184;28;20326;-69
2023/09/04 11:11:03;;;;;;;;;;;22.00;99.90;;;;;;5080849;28;19924;-69
2023/09/04 11:13:28;;;;;;;;;;;22.00;99.90;;;;;;5050354;28;20260;-68
2023/09/04 11:15:54;;;;;;;;;;;22.00;99.90;;;;;;5047794;28;19932;-68
2023/09/04 11:18:20;;;;;;;;;;;22.00;99.90;;;;;;5049086;28;20461;-69
2023/09/04 11:20:46;;;;;;;;;;;22.00;99.90;;;;;;5048692;28;19921;-68
2023/09/04 11:23:12;;;;;;;;;;;22.10;99.90;;;;;;5050974;28;19923;-69
2023/09/04 11:25:38;;;;;;;;;;;22.10;99.90;;;;;;5049590;28;19921;-69
2023/09/04 11:28:05;;;;;;;;;;;22.20;99.90;;;;;;5047395;28;19921;-70
2023/09/04 11:30:31;;;;;;;;;;;22.20;99.90;;;;;;5048863;28;19917;-68
2023/09/04 11:32:59;;;;;;;;;;;22.20;99.90;;;;;;5047675;28;19951;-69
2023/09/04 11:35:25;;;;;;;;;;;22.30;99.90;;;;;;5041145;28;20035;-69
2023/09/04 11:37:50;;;;;;;;;;;22.40;99.90;;;;;;5044296;28;19966;-69
2023/09/04 11:40:16;;;;;;;;;;;22.50;99.90;;;;;;5037735;28;19927;-69
2023/09/04 11:42:42;;;;;;;;;;;22.50;99.90;;;;;;5043568;28;19924;-68
2023/09/04 11:45:08;;;;;;;;;;;22.60;99.90;;;;;;5039670;28;19985;-69
2023/09/04 11:47:33;;;;;;;;;;;22.60;99.90;;;;;;5032585;28;19925;-69
2023/09/04 11:49:59;;;;;;;;;;;22.60;99.90;;;;;;5045338;28;19916;-68
2023/09/04 11:52:26;;;;;;;;;;;22.60;99.90;;;;;;5042380;28;19928;-69
2023/09/04 11:54:52;;;;;;;;;;;22.60;99.90;;;;;;5044013;28;19928;-69
2023/09/04 11:57:18;;;;;;;;;;;22.70;99.90;;;;;;5042999;28;20275;-69
2023/09/04 11:59:43;;;;;;;;;;;22.80;99.90;;;;;;5047739;28;19917;-69
2023/09/04 12:02:09;;;;;;;;;;;22.80;99.90;;;;;;5039929;28;20014;-69
2023/09/04 12:04:35;;;;;;;;;;;22.80;99.90;;;;;;5046510;28;19916;-68
2023/09/04 12:07:01;;;;;;;;;;;22.90;99.90;;;;;;5032773;28;19966;-69
2023/09/04 12:09:28;;;;;;;;;;;22.90;99.90;;;;;;5041858;28;19924;-69
2023/09/04 12:11:54;;;;;;;;;;;22.90;99.90;;;;;;5038003;28;19917;-69
2023/09/04 12:14:20;;;;;;;;;;;23.00;99.90;;;;;;5039485;28;19924;-68
2023/09/04 12:16:46;;;;;;;;;;;22.90;99.90;;;;;;5036515;28;19925;-69
2023/09/04 12:19:12;;;;;;;;;;;23.00;99.90;;;;;;5042014;28;20316;-69
2023/09/04 12:21:37;;;;;;;;;;;23.00;99.90;;;;;;5042442;28;20062;-68
2023/09/04 12:24:10;;;;;;;;;;;23.10;99.90;;;;;;5044635;28;19933;-69
2023/09/04 12:26:36;;;;;;;;;;;23.10;99.90;;;;;;5040865;28;19924;-69
2023/09/04 12:29:02;;;;;;;;;;;23.10;99.90;;;;;;5043738;28;19989;-68
2023/09/04 12:31:29;;;;;;;;;;;23.10;99.90;;;;;;5039323;28;19928;-68
2023/09/04 12:33:55;;;;;;;;;;;23.10;99.90;;;;;;5041703;28;19951;-69
2023/09/04 12:36:21;;;;;;;;;;;23.10;99.90;;;;;;5043921;28;19916;-68
2023/09/04 12:38:47;;;;;;;;;;;23.20;99.90;;;;;;5042292;28;20263;-68
2023/09/04 12:41:13;;;;;;;;;;;23.20;99.90;;;;;;5042794;28;19932;-68
2023/09/04 12:43:38;;;;;;;;;;;23.20;99.90;;;;;;5040034;28;19921;-68
2023/09/04 12:46:04;;;;;;;;;;;23.20;99.90;;;;;;5047036;28;19921;-68
2023/09/04 12:48:29;;;;;;;;;;;23.30;99.90;;;;;;5046986;28;19916;-69
2023/09/04 12:50:54;;;;;;;;;;;23.30;99.90;;;;;;5040788;28;20371;-69
2023/09/04 12:53:20;;;;;;;;;;;23.30;99.90;;;;;;5036830;28;19920;-68
2023/09/04 12:55:46;;;;;;;;;;;23.30;99.90;;;;;;5040080;28;20560;-69
2023/09/04 12:58:12;;;;;;;;;;;23.30;99.90;;;;;;5041412;28;19924;-69
2023/09/04 13:00:40;;;;;;;;;;;23.30;99.90;;;;;;5038218;28;19943;-68
2023/09/04 13:03:06;;;;;;;;;;;23.30;99.90;;;;;;5047748;28;20446;-69
2023/09/04 13:05:32;;;;;;;;;;;23.30;99.90;;;;;;5074387;28;20015;-68
2023/09/04 13:07:57;;;;;;;;;;;23.30;99.90;;;;;;5041918;28;19925;-68
2023/09/04 13:10:23;;;;;;;;;;;23.30;99.90;;;;;;5044638;28;19925;-68
2023/09/04 13:12:48;;;;;;;;;;;23.40;99.90;;;;;;5043494;28;19924;-69
2023/09/04 13:15:15;;;;;;;;;;;23.30;99.90;;;;;;5020349;28;20013;-68
2023/09/04 13:17:43;;;;;;;;;;;23.40;99.90;;;;;;5072714;28;20349;-68
2023/09/04 13:20:10;;;;;;;;;;;23.40;99.90;;;;;;5043429;28;19921;-69
2023/09/04 13:22:40;;;;;;;;;;;23.50;99.90;;;;;;5042179;28;19923;-68
2023/09/04 13:25:05;;;;;;;;;;;23.50;99.90;;;;;;5042831;28;19932;-69
2023/09/04 13:27:33;;;;;;;;;;;23.60;99.90;;;;;;5073945;28;19920;-69
2023/09/04 13:29:58;;;;;;;;;;;23.60;99.90;;;;;;5076130;28;20371;-69
2023/09/04 13:32:24;;;;;;;;;;;23.60;99.90;;;;;;5074570;28;19917;-69
2023/09/04 13:34:49;;;;;;;;;;;23.70;99.90;;;;;;5075600;28;20356;-69
2023/09/04 13:37:15;;;;;;;;;;;23.70;99.90;;;;;;5040222;28;19927;-69
2023/09/04 13:39:40;;;;;;;;;;;23.60;99.90;;;;;;5037178;28;19923;-69
2023/09/04 13:42:06;;;;;;;;;;;23.70;99.90;;;;;;5043721;28;19920;-69
2023/09/04 13:44:31;;;;;;;;;;;23.70;99.90;;;;;;5042359;28;19925;-68
2023/09/04 13:46:56;;;;;;;;;;;23.70;99.90;;;;;;5073801;28;20389;-68
2023/09/04 13:49:22;;;;;;;;;;;23.60;99.90;;;;;;5041728;28;19986;-69
2023/09/04 13:51:47;;;;;;;;;;;23.60;99.90;;;;;;5040519;28;19924;-69
2023/09/04 13:54:13;;;;;;;;;;;23.50;99.90;;;;;;5043619;28;19947;-69
2023/09/04 13:56:39;;;;;;;;;;;23.50;99.90;;;;;;5042574;28;19978;-69
2023/09/04 13:59:06;;;;;;;;;;;23.50;99.90;;;;;;5046818;28;20382;-69
2023/09/04 14:01:32;;;;;;;;;;;23.50;99.90;;;;;;5028937;28;19921;-69
2023/09/04 14:03:57;;;;;;;;;;;23.40;99.90;;;;;;5044929;28;19951;-69
2023/09/04 14:06:23;;;;;;;;;;;23.40;99.90;;;;;;5045078;28;20308;-69
2023/09/04 14:08:48;;;;;;;;;;;23.40;99.90;;;;;;5044879;28;19917;-69
2023/09/04 14:11:14;;;;;;;;;;;23.40;99.90;;;;;;5044880;28;20331;-69